createdAt,value
2019-02-28T00:01:07.551Z,100611.83
2019-02-28T00:03:13.828Z,100603.63
2019-02-28T00:05:20.007Z,100598.81
2019-02-28T00:07:26.160Z,100594.83
2019-02-28T00:09:32.410Z,100594.31
2019-02-28T00:11:39.550Z,100586.45
2019-02-28T00:13:46.357Z,100572.57
2019-02-28T00:15:52.443Z,100572.57
2019-02-28T00:17:58.789Z,100571.31
2019-02-28T00:20:07.182Z,100559.12
2019-02-28T00:22:14.648Z,100556.21
2019-02-28T00:24:21.151Z,100554.52
2019-02-28T00:26:27.311Z,100551.14
2019-02-28T00:28:33.478Z,100549.80
2019-02-28T00:30:40.826Z,100539.86
2019-02-28T00:32:47.939Z,100533.44
2019-02-28T00:34:53.968Z,100523.12
2019-02-28T00:37:00.053Z,100522.38
2019-02-28T00:39:07.449Z,100520.38
2019-02-28T00:41:13.815Z,100515.69
2019-02-28T00:43:22.279Z,100519.70
2019-02-28T00:45:27.656Z,100515.01
2019-02-28T00:47:33.899Z,100509.41
2019-02-28T00:49:39.960Z,100504.25
2019-02-28T00:51:46.110Z,100510.31
2019-02-28T00:53:52.287Z,100512.45
2019-02-28T00:55:58.538Z,100498.19
2019-02-28T00:58:04.597Z,100499.88
2019-02-28T01:00:20.017Z,100500.70
2019-02-28T01:02:26.220Z,100488.93
2019-02-28T01:04:32.281Z,100481.56
2019-02-28T01:06:38.349Z,100478.92
2019-02-28T01:08:46.161Z,100474.58
2019-02-28T01:10:52.387Z,100476.67
2019-02-28T01:12:58.548Z,100471.86
2019-02-28T01:15:07.159Z,100453.66
2019-02-28T01:17:14.237Z,100455.47
2019-02-28T01:19:20.298Z,100459.41
2019-02-28T01:21:26.460Z,100445.58
2019-02-28T01:23:32.519Z,100444.98
2019-02-28T01:25:40.139Z,100438.44
2019-02-28T01:27:46.560Z,100433.67
2019-02-28T01:29:52.619Z,100427.16
2019-02-28T01:31:58.746Z,100422.83
2019-02-28T01:34:04.847Z,100415.41
2019-02-28T01:36:12.295Z,100421.09
2019-02-28T01:38:18.888Z,100418.02
2019-02-28T01:40:25.249Z,100416.19
2019-02-28T01:42:31.407Z,100410.98
2019-02-28T01:44:37.799Z,100404.86
2019-02-28T01:46:43.828Z,100404.43
2019-02-28T01:48:49.992Z,100392.24
2019-02-28T01:50:56.140Z,100382.70
2019-02-28T01:53:02.306Z,100383.63
2019-02-28T01:55:11.120Z,100386.33
2019-02-28T01:57:17.291Z,100375.53
2019-02-28T01:59:23.538Z,100372.54
2019-02-28T02:01:31.011Z,100370.81
2019-02-28T02:03:40.712Z,100369.59
2019-02-28T02:05:48.267Z,100359.67
2019-02-28T02:07:53.279Z,100359.72
2019-02-28T02:09:59.448Z,100348.89
2019-02-28T02:12:05.602Z,100348.46
2019-02-28T02:14:11.903Z,100333.78
2019-02-28T02:16:18.229Z,100335.59
2019-02-28T02:18:24.280Z,100322.60
2019-02-28T02:20:30.439Z,100317.45
2019-02-28T02:22:36.498Z,100304.92
2019-02-28T02:24:42.659Z,100295.88
2019-02-28T02:26:48.799Z,100295.44
2019-02-28T02:28:54.989Z,100281.09
2019-02-28T02:31:01.129Z,100280.22
2019-02-28T02:33:13.851Z,100278.92
2019-02-28T02:35:15.895Z,100281.86
2019-02-28T02:37:22.055Z,100275.70
2019-02-28T02:39:28.319Z,100267.84
2019-02-28T02:41:34.673Z,100262.59
2019-02-28T02:43:41.042Z,100250.07
2019-02-28T02:45:47.308Z,100251.31
2019-02-28T02:47:54.249Z,100251.31
2019-02-28T02:50:00.667Z,100240.59
2019-02-28T02:52:06.899Z,100236.58
2019-02-28T02:54:17.940Z,100225.66
2019-02-28T02:56:20.960Z,100221.89
2019-02-28T02:58:28.087Z,100213.18
2019-02-28T03:00:34.398Z,100202.63
2019-02-28T03:02:40.583Z,100204.36
2019-02-28T03:04:46.721Z,100201.32
2019-02-28T03:06:52.790Z,100190.50
2019-02-28T03:08:59.037Z,100175.55
2019-02-28T03:11:05.310Z,100178.52
2019-02-28T03:13:11.549Z,100165.30
2019-02-28T03:15:24.813Z,100161.39
2019-02-28T03:17:26.959Z,100163.91
2019-02-28T03:19:34.588Z,100156.92
2019-02-28T03:21:40.903Z,100160.91
2019-02-28T03:23:47.052Z,100160.51
2019-02-28T03:25:53.214Z,100154.89
2019-02-28T03:27:59.486Z,100151.17
2019-02-28T03:30:27.737Z,100146.05
2019-02-28T03:32:39.641Z,100146.58
2019-02-28T03:34:36.070Z,100133.25
2019-02-28T03:36:42.219Z,100137.73
2019-02-28T03:38:49.829Z,100123.55
2019-02-28T03:40:56.488Z,100126.80
2019-02-28T03:43:06.756Z,100113.67
2019-02-28T03:45:15.834Z,100109.52
2019-02-28T03:47:23.948Z,100105.75
2019-02-28T03:49:29.927Z,100091.39
2019-02-28T03:51:36.191Z,100093.61
2019-02-28T03:53:42.789Z,100091.94
2019-02-28T03:55:49.094Z,100085.07
2019-02-28T03:57:55.743Z,100079.43
2019-02-28T04:00:02.223Z,100077.69
2019-02-28T04:02:09.731Z,100074.74
2019-02-28T04:04:15.884Z,100068.72
2019-02-28T04:06:22.062Z,100071.58
2019-02-28T04:08:30.368Z,100068.30
2019-02-28T04:10:35.902Z,100063.82
2019-02-28T04:12:45.628Z,100055.23
2019-02-28T04:14:51.294Z,100054.34
2019-02-28T04:16:57.560Z,100048.10
2019-02-28T04:19:03.839Z,100045.06
2019-02-28T04:21:11.888Z,100053.74
2019-02-28T04:23:17.876Z,100058.14
2019-02-28T04:25:24.532Z,100052.81
2019-02-28T04:27:30.909Z,100049.23
2019-02-28T04:29:37.168Z,100037.39
2019-02-28T04:31:43.321Z,100037.81
2019-02-28T04:33:49.461Z,100039.42
2019-02-28T04:35:56.871Z,100028.59
2019-02-28T04:38:03.437Z,100027.34
2019-02-28T04:40:14.481Z,100021.52
2019-02-28T04:42:20.663Z,100023.03
2019-02-28T04:44:26.700Z,100013.99
2019-02-28T04:46:32.782Z,100007.00
2019-02-28T04:48:38.810Z,99999.19
2019-02-28T04:50:45.097Z,99989.62
2019-02-28T04:52:51.665Z,99980.09
2019-02-28T04:54:59.399Z,99972.43
2019-02-28T04:57:06.818Z,99973.39
2019-02-28T04:59:12.899Z,99962.98
2019-02-28T05:01:19.040Z,99959.64
2019-02-28T05:03:27.938Z,99957.03
2019-02-28T05:05:33.002Z,99960.09
2019-02-28T05:07:39.169Z,99956.09
2019-02-28T05:09:48.096Z,99950.69
2019-02-28T05:11:53.333Z,99948.09
2019-02-28T05:13:59.488Z,99944.99
2019-02-28T05:16:05.655Z,99950.25
2019-02-28T05:18:11.924Z,99952.14
2019-02-28T05:20:18.171Z,99943.09
2019-02-28T05:22:24.461Z,99946.18
2019-02-28T05:24:32.310Z,99939.70
2019-02-28T05:26:38.475Z,99938.47
2019-02-28T05:28:44.725Z,99941.02
2019-02-28T05:30:53.746Z,99926.78
2019-02-28T05:32:58.779Z,99934.34
2019-02-28T05:35:05.453Z,99943.58
2019-02-28T05:37:12.526Z,99942.88
2019-02-28T05:39:19.315Z,99936.09
2019-02-28T05:41:25.476Z,99935.44
2019-02-28T05:43:32.111Z,99937.69
2019-02-28T05:45:39.009Z,99934.42
2019-02-28T05:47:47.236Z,99925.40
2019-02-28T05:49:53.867Z,99919.91
2019-02-28T05:51:59.935Z,99907.05
2019-02-28T05:54:06.087Z,99903.94
2019-02-28T05:56:12.166Z,99900.53
2019-02-28T05:58:18.864Z,99897.58
2019-02-28T06:00:26.315Z,99904.45
2019-02-28T06:02:32.496Z,99891.65
2019-02-28T06:04:38.629Z,99883.33
2019-02-28T06:06:44.796Z,99880.02
2019-02-28T06:08:51.046Z,99878.06
2019-02-28T06:11:00.616Z,99878.50
2019-02-28T06:13:05.105Z,99875.25
2019-02-28T06:15:14.454Z,99874.53
2019-02-28T06:17:21.703Z,99874.61
2019-02-28T06:19:28.288Z,99872.58
2019-02-28T06:21:34.447Z,99877.88
2019-02-28T06:23:41.005Z,99879.31
2019-02-28T06:25:47.808Z,99878.89
2019-02-28T06:27:53.935Z,99885.89
2019-02-28T06:30:00.111Z,99891.53
2019-02-28T06:32:06.566Z,99890.66
2019-02-28T06:34:12.624Z,99881.11
2019-02-28T06:36:18.877Z,99869.79
2019-02-28T06:38:25.054Z,99868.45
2019-02-28T06:40:33.163Z,99864.48
2019-02-28T06:42:39.210Z,99856.99
2019-02-28T06:44:45.360Z,99853.88
2019-02-28T06:46:51.407Z,99862.47
2019-02-28T06:49:06.121Z,99867.22
2019-02-28T06:51:05.466Z,99869.77
2019-02-28T06:53:11.734Z,99885.22
2019-02-28T06:55:19.529Z,99895.46
2019-02-28T06:57:26.887Z,99894.85
2019-02-28T06:59:36.264Z,99892.33
2019-02-28T07:01:41.494Z,99881.13
2019-02-28T07:03:53.461Z,99874.27
2019-02-28T07:05:57.526Z,99869.16
2019-02-28T07:08:03.564Z,99864.49
2019-02-28T07:10:18.923Z,99864.19
2019-02-28T07:12:29.535Z,99861.80
2019-02-28T07:14:32.993Z,99852.05
2019-02-28T07:16:39.126Z,99850.58
2019-02-28T07:18:45.286Z,99844.00
2019-02-28T07:20:51.617Z,99835.17
2019-02-28T07:22:57.707Z,99837.69
2019-02-28T07:25:03.853Z,99853.56
2019-02-28T07:27:10.017Z,99864.22
2019-02-28T07:29:16.180Z,99864.42
2019-02-28T07:31:24.665Z,99870.70
2019-02-28T07:33:30.437Z,99885.17
2019-02-28T07:35:36.958Z,99892.66
2019-02-28T07:37:43.270Z,99887.31
2019-02-28T07:39:49.422Z,99872.87
2019-02-28T07:41:58.799Z,99874.58
2019-02-28T07:44:03.487Z,99865.83
2019-02-28T07:46:09.746Z,99864.94
2019-02-28T07:48:16.106Z,99830.16
2019-02-28T07:50:22.365Z,99821.09
2019-02-28T07:52:32.379Z,99825.86
2019-02-28T07:54:36.417Z,99820.48
2019-02-28T07:56:43.173Z,99817.22
2019-02-28T07:58:50.272Z,99830.07
2019-02-28T08:00:56.521Z,99834.20
2019-02-28T08:03:02.681Z,99825.30
2019-02-28T08:05:13.041Z,99832.89
2019-02-28T08:07:19.197Z,99840.86
2019-02-28T08:09:28.718Z,99851.81
2019-02-28T08:11:34.894Z,99856.34
2019-02-28T08:13:41.167Z,99846.06
2019-02-28T08:15:47.427Z,99851.22
2019-02-28T08:17:53.686Z,99843.53
2019-02-28T08:19:59.844Z,99821.73
2019-02-28T08:22:05.977Z,99826.86
2019-02-28T08:24:12.463Z,99831.11
2019-02-28T08:26:18.931Z,99823.69
2019-02-28T08:28:26.657Z,99827.91
2019-02-28T08:30:35.438Z,99828.65
2019-02-28T08:32:44.118Z,99836.83
2019-02-28T08:34:50.741Z,99837.12
2019-02-28T08:36:57.301Z,99832.98
2019-02-28T08:39:06.045Z,99834.59
2019-02-28T08:41:13.624Z,99843.17
2019-02-28T08:43:27.174Z,99836.64
2019-02-28T08:45:32.709Z,99846.34
2019-02-28T08:47:36.477Z,99848.73
2019-02-28T08:49:45.391Z,99846.86
2019-02-28T08:51:50.646Z,99851.60
2019-02-28T08:53:56.902Z,99845.97
2019-02-28T08:56:03.159Z,99845.78
2019-02-28T08:58:09.417Z,99844.03
2019-02-28T09:00:21.228Z,99856.09
2019-02-28T09:02:27.477Z,99864.87
2019-02-28T09:04:41.034Z,99869.42
2019-02-28T09:06:41.736Z,99874.98
2019-02-28T09:08:48.009Z,99861.70
2019-02-28T09:10:54.258Z,99858.03
2019-02-28T09:13:00.517Z,99855.86
2019-02-28T09:15:10.857Z,99860.11
2019-02-28T09:17:18.655Z,99864.70
2019-02-28T09:19:25.252Z,99845.61
2019-02-28T09:21:35.339Z,99830.61
2019-02-28T09:23:41.834Z,99837.71
2019-02-28T09:25:48.002Z,99840.17
2019-02-28T09:27:54.163Z,99846.10
2019-02-28T09:30:00.414Z,99841.80
2019-02-28T09:32:10.231Z,99846.92
2019-02-28T09:34:16.823Z,99852.77
2019-02-28T09:36:22.982Z,99863.37
2019-02-28T09:38:29.143Z,99864.36
2019-02-28T09:40:35.304Z,99870.00
2019-02-28T09:42:41.571Z,99860.56
2019-02-28T09:44:47.823Z,99871.85
2019-02-28T09:46:54.086Z,99871.91
2019-02-28T09:49:00.350Z,99883.36
2019-02-28T09:51:06.505Z,99888.80
2019-02-28T09:53:15.554Z,99881.69
2019-02-28T09:55:21.097Z,99872.28
2019-02-28T09:57:27.341Z,99881.16
2019-02-28T09:59:37.336Z,99876.66
2019-02-28T10:01:42.545Z,99873.80
2019-02-28T10:03:48.883Z,99867.53
2019-02-28T10:05:55.143Z,99870.30
2019-02-28T10:08:02.855Z,99875.94
2019-02-28T10:10:20.871Z,99876.14
2019-02-28T10:12:27.150Z,99876.31
2019-02-28T10:14:34.645Z,99873.82
2019-02-28T10:16:40.862Z,99880.16
2019-02-28T10:18:47.055Z,99883.33
2019-02-28T10:20:53.391Z,99893.04
2019-02-28T10:22:59.590Z,99897.42
2019-02-28T10:25:08.184Z,99895.13
2019-02-28T10:27:14.645Z,99907.47
2019-02-28T10:29:21.093Z,99908.44
2019-02-28T10:31:36.160Z,99927.65
2019-02-28T10:33:35.057Z,99912.44
2019-02-28T10:35:41.310Z,99906.16
2019-02-28T10:37:48.190Z,99910.56
2019-02-28T10:39:54.238Z,99925.49
2019-02-28T10:42:01.473Z,99941.23
2019-02-28T10:44:09.331Z,99932.50
2019-02-28T10:46:16.950Z,99905.23
2019-02-28T10:48:23.386Z,99916.53
2019-02-28T10:50:38.310Z,99916.59
2019-02-28T10:52:44.825Z,99908.13
2019-02-28T10:54:51.071Z,99906.09
2019-02-28T10:56:57.218Z,99907.35
2019-02-28T10:59:03.681Z,99914.28
2019-02-28T11:01:11.705Z,99906.14
2019-02-28T11:03:19.399Z,99918.21
2019-02-28T11:05:34.761Z,99924.00
2019-02-28T11:07:41.015Z,99919.40
2019-02-28T11:09:47.262Z,99919.53
2019-02-28T11:11:54.541Z,99924.14
2019-02-28T11:14:03.925Z,99922.70
2019-02-28T11:16:10.454Z,99927.84
2019-02-28T11:18:17.133Z,99928.45
2019-02-28T11:20:26.171Z,99928.00
2019-02-28T11:22:32.623Z,99940.98
2019-02-28T11:24:38.886Z,99948.65
2019-02-28T11:26:45.646Z,99939.06
2019-02-28T11:28:51.946Z,99952.91
2019-02-28T11:30:58.377Z,99950.02
2019-02-28T11:33:05.793Z,99954.09
2019-02-28T11:35:12.635Z,99946.36
2019-02-28T11:37:18.915Z,99949.65
2019-02-28T11:39:27.597Z,99948.33
2019-02-28T11:41:33.074Z,99951.53
2019-02-28T11:43:39.313Z,99948.20
2019-02-28T11:45:48.154Z,99953.72
2019-02-28T11:47:56.965Z,99951.09
2019-02-28T11:50:04.640Z,99947.75
2019-02-28T11:52:11.124Z,99954.49
2019-02-28T11:54:17.794Z,99949.11
2019-02-28T11:56:25.589Z,99944.41
2019-02-28T11:58:31.934Z,99937.90
2019-02-28T12:00:40.483Z,99939.61
2019-02-28T12:02:53.379Z,99934.13
2019-02-28T12:04:55.131Z,99949.42
2019-02-28T12:07:01.785Z,99936.30
2019-02-28T12:09:09.386Z,99936.14
2019-02-28T12:11:15.660Z,99950.10
2019-02-28T12:13:21.925Z,99946.35
2019-02-28T12:15:38.227Z,99963.09
2019-02-28T12:17:43.141Z,99972.45
2019-02-28T12:19:50.644Z,99956.34
2019-02-28T12:21:57.193Z,99966.75
2019-02-28T12:24:03.370Z,99965.42
2019-02-28T12:26:09.612Z,99969.55
2019-02-28T12:28:15.766Z,99978.61
2019-02-28T12:30:28.401Z,99990.35
2019-02-28T12:32:34.641Z,99992.38
2019-02-28T12:34:40.893Z,99980.75
2019-02-28T12:36:49.418Z,99981.11
2019-02-28T12:38:55.098Z,99977.09
2019-02-28T12:41:01.323Z,99973.75
2019-02-28T12:43:10.954Z,99970.67
2019-02-28T12:45:25.118Z,99965.29
2019-02-28T12:47:33.114Z,99966.11
2019-02-28T12:49:40.748Z,99970.69
2019-02-28T12:51:46.958Z,99976.43
2019-02-28T12:53:56.246Z,99980.37
2019-02-28T12:56:01.116Z,99986.47
2019-02-28T12:58:07.476Z,99989.81
2019-02-28T13:00:23.302Z,99986.28
2019-02-28T13:02:28.485Z,99991.45
2019-02-28T13:04:35.824Z,99986.23
2019-02-28T13:06:42.551Z,99981.23
2019-02-28T13:08:48.814Z,99986.28
2019-02-28T13:10:54.977Z,100001.03
2019-02-28T13:13:06.400Z,99996.69
2019-02-28T13:15:13.874Z,99999.91
2019-02-28T13:17:20.193Z,100004.16
2019-02-28T13:19:26.676Z,100004.57
2019-02-28T13:21:32.927Z,100008.96
2019-02-28T13:23:39.107Z,100014.66
2019-02-28T13:25:45.354Z,100017.56
2019-02-28T13:27:51.626Z,100029.81
2019-02-28T13:29:57.882Z,100034.23
2019-02-28T13:32:04.261Z,100025.88
2019-02-28T13:34:11.093Z,100029.17
2019-02-28T13:36:18.502Z,100022.88
2019-02-28T13:38:25.368Z,100023.59
2019-02-28T13:40:31.625Z,100018.81
2019-02-28T13:42:40.914Z,100027.67
2019-02-28T13:44:45.686Z,100033.95
2019-02-28T13:46:51.853Z,100040.73
2019-02-28T13:48:58.121Z,100033.83
2019-02-28T13:51:08.416Z,100035.39
2019-02-28T13:53:18.276Z,100035.92
2019-02-28T13:55:22.119Z,100036.05
2019-02-28T13:57:28.360Z,100032.30
2019-02-28T13:59:34.617Z,100037.41
2019-02-28T14:01:40.808Z,100040.03
2019-02-28T14:03:47.246Z,100042.08
2019-02-28T14:05:53.613Z,100047.98
2019-02-28T14:07:59.956Z,100050.03
2019-02-28T14:10:11.505Z,100053.70
2019-02-28T14:12:20.788Z,100056.48
2019-02-28T14:14:25.804Z,100056.08
2019-02-28T14:16:33.240Z,100059.00
2019-02-28T14:18:39.365Z,100066.99
2019-02-28T14:20:45.931Z,100058.14
2019-02-28T14:22:52.598Z,100061.88
2019-02-28T14:24:58.871Z,100057.05
2019-02-28T14:27:05.222Z,100058.64
2019-02-28T14:29:11.733Z,100060.48
2019-02-28T14:31:18.267Z,100054.18
2019-02-28T14:33:26.050Z,100051.96
2019-02-28T14:35:35.542Z,100055.86
2019-02-28T14:37:40.441Z,100046.97
2019-02-28T14:39:47.820Z,100063.20
2019-02-28T14:41:54.071Z,100069.84
2019-02-28T14:44:00.324Z,100071.88
2019-02-28T14:46:06.891Z,100078.22
2019-02-28T14:48:13.253Z,100091.23
2019-02-28T14:50:19.992Z,100085.19
2019-02-28T14:52:26.389Z,100093.98
2019-02-28T14:54:32.698Z,100087.06
2019-02-28T14:56:39.579Z,100085.13
2019-02-28T14:58:46.815Z,100085.69
2019-02-28T15:00:53.082Z,100087.55
2019-02-28T15:03:04.041Z,100092.09
2019-02-28T15:05:16.625Z,100092.95
2019-02-28T15:07:21.684Z,100096.65
2019-02-28T15:09:28.134Z,100092.45
2019-02-28T15:11:34.719Z,100091.48
2019-02-28T15:13:40.969Z,100103.88
2019-02-28T15:15:49.444Z,100102.72
2019-02-28T15:17:55.468Z,100113.51
2019-02-28T15:20:01.602Z,100115.41
2019-02-28T15:22:09.812Z,100107.45
2019-02-28T15:24:15.953Z,100105.46
2019-02-28T15:26:22.322Z,100107.36
2019-02-28T15:28:28.580Z,100110.97
2019-02-28T15:30:40.282Z,100109.35
2019-02-28T15:32:46.630Z,100113.03
2019-02-28T15:34:53.607Z,100112.37
2019-02-28T15:37:00.287Z,100120.34
2019-02-28T15:39:09.680Z,100114.90
2019-02-28T15:41:16.175Z,100113.28
2019-02-28T15:43:22.757Z,100121.31
2019-02-28T15:45:29.012Z,100133.23
2019-02-28T15:47:35.261Z,100132.92
2019-02-28T15:49:42.588Z,100141.42
2019-02-28T15:51:49.101Z,100143.77
2019-02-28T15:53:55.372Z,100146.06
2019-02-28T15:56:01.855Z,100152.37
2019-02-28T15:58:09.630Z,100152.19
2019-02-28T16:00:33.921Z,100153.17
2019-02-28T16:02:43.315Z,100159.08
2019-02-28T16:04:49.640Z,100164.95
2019-02-28T16:06:57.939Z,100170.34
2019-02-28T16:09:06.122Z,100177.07
2019-02-28T16:11:17.279Z,100187.82
2019-02-28T16:13:26.596Z,100190.54
2019-02-28T16:15:33.299Z,100193.39
2019-02-28T16:17:42.351Z,100196.08
2019-02-28T16:19:48.694Z,100198.07
2019-02-28T16:21:55.267Z,100200.42
2019-02-28T16:24:05.069Z,100211.80
2019-02-28T16:26:10.362Z,100214.06
2019-02-28T16:28:17.210Z,100215.91
2019-02-28T16:30:23.691Z,100220.67
2019-02-28T16:32:30.080Z,100216.84
2019-02-28T16:34:38.796Z,100218.30
2019-02-28T16:36:45.201Z,100215.41
2019-02-28T16:38:51.692Z,100222.58
2019-02-28T16:41:00.800Z,100216.73
2019-02-28T16:43:06.271Z,100219.95
2019-02-28T16:45:19.691Z,100228.75
2019-02-28T16:47:27.312Z,100223.13
2019-02-28T16:49:34.039Z,100233.17
2019-02-28T16:51:40.748Z,100233.30
2019-02-28T16:53:48.008Z,100235.19
2019-02-28T16:55:55.307Z,100250.41
2019-02-28T16:58:06.249Z,100253.87
2019-02-28T17:00:16.144Z,100250.14
2019-02-28T17:02:26.425Z,100250.64
2019-02-28T17:04:33.862Z,100245.41
2019-02-28T17:06:40.431Z,100251.26
2019-02-28T17:08:48.437Z,100262.12
2019-02-28T17:10:54.891Z,100267.34
2019-02-28T17:13:04.204Z,100275.20
2019-02-28T17:15:14.789Z,100279.17
2019-02-28T17:17:23.023Z,100275.78
2019-02-28T17:19:31.679Z,100285.31
2019-02-28T17:21:37.683Z,100277.56
2019-02-28T17:23:45.244Z,100279.36
2019-02-28T17:25:56.525Z,100278.13
2019-02-28T17:28:20.919Z,100276.95
2019-02-28T17:30:32.959Z,100280.92
2019-02-28T17:32:41.841Z,100288.84
2019-02-28T17:34:48.531Z,100284.63
2019-02-28T17:36:56.438Z,100282.08
2019-02-28T17:39:05.460Z,100283.50
2019-02-28T17:41:13.442Z,100281.34
2019-02-28T17:43:24.123Z,100279.70
2019-02-28T17:45:29.444Z,100288.38
2019-02-28T17:47:46.802Z,100298.30
2019-02-28T17:50:27.585Z,100297.06
2019-02-28T17:53:10.219Z,100297.12
2019-02-28T17:55:35.974Z,100299.23
2019-02-28T17:57:55.930Z,100306.17
2019-02-28T18:00:21.964Z,100296.18
2019-02-28T18:02:55.403Z,100309.27
2019-02-28T18:05:36.497Z,100308.01
2019-02-28T18:08:07.494Z,100308.06
2019-02-28T18:10:38.833Z,100311.16
2019-02-28T18:13:20.078Z,100307.63
2019-02-28T18:15:33.037Z,100297.70
2019-02-28T18:18:24.793Z,100297.77
2019-02-28T18:21:04.691Z,100299.55
2019-02-28T18:23:47.002Z,100302.75
2019-02-28T18:26:19.065Z,100303.39
2019-02-28T18:28:35.976Z,100299.48
2019-02-28T18:31:12.134Z,100304.78
2019-02-28T18:33:19.511Z,100306.13
2019-02-28T18:35:29.169Z,100313.93
2019-02-28T18:37:35.326Z,100310.56
2019-02-28T18:39:44.608Z,100313.25
2019-02-28T18:41:52.885Z,100321.53
2019-02-28T18:44:00.087Z,100315.55
2019-02-28T18:46:08.207Z,100319.50
2019-02-28T18:48:17.851Z,100324.27
2019-02-28T18:50:24.299Z,100319.16
2019-02-28T18:52:31.065Z,100321.71
2019-02-28T18:54:39.364Z,100324.78
2019-02-28T18:56:45.920Z,100316.20
2019-02-28T18:58:53.765Z,100327.11
2019-02-28T19:01:00.785Z,100318.84
2019-02-28T19:03:08.045Z,100329.76
2019-02-28T19:05:14.772Z,100323.73
2019-02-28T19:07:21.625Z,100327.27
2019-02-28T19:09:28.245Z,100335.61
2019-02-28T19:11:35.086Z,100337.34
2019-02-28T19:13:42.385Z,100333.53
2019-02-28T19:15:49.005Z,100334.83
2019-02-28T19:17:55.985Z,100339.12
2019-02-28T19:20:02.591Z,100334.83
2019-02-28T19:22:10.810Z,100332.70
2019-02-28T19:24:17.356Z,100334.50
2019-02-28T19:26:24.110Z,100340.59
2019-02-28T19:28:30.707Z,100338.44
2019-02-28T19:30:39.077Z,100340.62
2019-02-28T19:32:45.660Z,100344.09
2019-02-28T19:34:53.771Z,100340.70
2019-02-28T19:37:02.777Z,100342.47
2019-02-28T19:39:10.551Z,100352.05
2019-02-28T19:41:17.340Z,100349.08
2019-02-28T19:43:25.554Z,100345.25
2019-02-28T19:45:36.510Z,100337.46
2019-02-28T19:47:47.598Z,100340.16
2019-02-28T19:49:54.353Z,100346.20
2019-02-28T19:52:02.263Z,100349.23
2019-02-28T19:54:09.020Z,100351.88
2019-02-28T19:56:16.390Z,100357.98
2019-02-28T19:58:22.855Z,100354.99
2019-02-28T20:00:29.372Z,100350.69
2019-02-28T20:02:36.503Z,100348.55
2019-02-28T20:04:44.190Z,100352.85
2019-02-28T20:06:50.622Z,100355.07
2019-02-28T20:08:57.400Z,100357.23
2019-02-28T20:11:04.118Z,100361.14
2019-02-28T20:13:10.691Z,100370.24
2019-02-28T20:15:20.773Z,100361.57
2019-02-28T20:17:28.253Z,100367.22
2019-02-28T20:19:34.881Z,100369.81
2019-02-28T20:21:41.705Z,100368.97
2019-02-28T20:23:49.632Z,100372.02
2019-02-28T20:25:56.287Z,100366.84
2019-02-28T20:28:02.811Z,100373.74
2019-02-28T20:30:14.340Z,100366.88
2019-02-28T20:32:21.325Z,100362.12
2019-02-28T20:34:29.200Z,100357.83
2019-02-28T20:36:35.737Z,100360.84
2019-02-28T20:38:45.059Z,100365.16
2019-02-28T20:40:53.063Z,100363.41
2019-02-28T20:42:59.534Z,100372.95
2019-02-28T20:45:11.193Z,100373.83
2019-02-28T20:47:19.355Z,100368.66
2019-02-28T20:49:26.103Z,100384.23
2019-02-28T20:51:32.871Z,100376.45
2019-02-28T20:53:39.651Z,100375.63
2019-02-28T20:55:48.859Z,100376.50
2019-02-28T20:57:57.468Z,100369.61
2019-02-28T21:00:07.965Z,100368.33
2019-02-28T21:02:14.598Z,100371.36
2019-02-28T21:04:21.378Z,100367.49
2019-02-28T21:06:28.213Z,100367.05
2019-02-28T21:08:34.603Z,100357.16
2019-02-28T21:10:41.397Z,100358.91
2019-02-28T21:12:49.403Z,100370.15
2019-02-28T21:14:55.941Z,100356.75
2019-02-28T21:17:02.239Z,100363.25
2019-02-28T21:19:09.079Z,100364.58
2019-02-28T21:21:16.982Z,100362.88
2019-02-28T21:23:24.069Z,100370.23
2019-02-28T21:25:32.910Z,100372.82
2019-02-28T21:27:39.470Z,100368.96
2019-02-28T21:29:47.363Z,100368.05
2019-02-28T21:31:53.825Z,100368.53
2019-02-28T21:34:00.386Z,100360.33
2019-02-28T21:36:07.127Z,100353.41
2019-02-28T21:38:14.074Z,100357.30
2019-02-28T21:40:22.541Z,100353.88
2019-02-28T21:42:28.934Z,100354.30
2019-02-28T21:44:35.889Z,100367.27
2019-02-28T21:46:42.243Z,100356.48
2019-02-28T21:48:48.706Z,100366.41
2019-02-28T21:50:54.969Z,100359.97
2019-02-28T21:53:01.639Z,100363.81
2019-02-28T21:55:12.056Z,100369.02
2019-02-28T21:57:18.348Z,100353.05
2019-02-28T21:59:24.505Z,100359.97
2019-02-28T22:01:30.659Z,100362.17
2019-02-28T22:03:36.923Z,100362.18
2019-02-28T22:05:43.393Z,100370.38
2019-02-28T22:07:49.556Z,100370.80
2019-02-28T22:09:55.933Z,100368.22
2019-02-28T22:12:02.188Z,100365.20
2019-02-28T22:14:08.445Z,100369.49
2019-02-28T22:16:14.996Z,100371.23
2019-02-28T22:18:21.165Z,100362.17
2019-02-28T22:20:27.417Z,100369.06
2019-02-28T22:22:33.689Z,100370.79
2019-02-28T22:24:39.929Z,100380.24
2019-02-28T22:26:46.099Z,100381.55
2019-02-28T22:28:52.448Z,100386.29
2019-02-28T22:31:00.268Z,100387.58
2019-02-28T22:33:24.374Z,100387.59
2019-02-28T22:35:32.129Z,100385.42
2019-02-28T22:37:40.434Z,100390.61
2019-02-28T22:39:46.588Z,100389.31
2019-02-28T22:41:52.746Z,100391.91
2019-02-28T22:43:58.918Z,100390.60
2019-02-28T22:46:05.071Z,100394.51
2019-02-28T22:48:11.121Z,100391.48
2019-02-28T22:50:17.283Z,100391.05
2019-02-28T22:52:24.818Z,100392.32
2019-02-28T22:54:31.133Z,100392.34
2019-02-28T22:56:37.298Z,100391.91
2019-02-28T22:58:43.552Z,100401.38
2019-02-28T23:01:08.137Z,100402.27
2019-02-28T23:03:15.828Z,100402.70
2019-02-28T23:05:21.989Z,100407.88
2019-02-28T23:07:28.157Z,100407.43
2019-02-28T23:09:34.305Z,100408.31
2019-02-28T23:11:40.565Z,100403.13
2019-02-28T23:13:46.707Z,100404.00
2019-02-28T23:15:52.981Z,100402.72
2019-02-28T23:17:59.142Z,100411.33
2019-02-28T23:20:08.174Z,100410.50
2019-02-28T23:22:14.551Z,100412.20
2019-02-28T23:24:20.992Z,100407.04
2019-02-28T23:26:27.695Z,100407.92
2019-02-28T23:28:38.220Z,100406.17
2019-02-28T23:31:17.050Z,100406.17
2019-02-28T23:33:23.715Z,100405.34
2019-02-28T23:35:34.006Z,100405.33
2019-02-28T23:37:40.364Z,100404.89
2019-02-28T23:39:46.592Z,100400.16
2019-02-28T23:41:52.855Z,100392.83
2019-02-28T23:43:59.113Z,100386.78
2019-02-28T23:46:05.584Z,100385.95
2019-02-28T23:48:11.938Z,100383.37
2019-02-28T23:50:18.116Z,100384.64
2019-02-28T23:52:24.344Z,100382.50
2019-02-28T23:54:30.514Z,100379.48
2019-02-28T23:56:36.687Z,100376.47
2019-02-28T23:58:42.761Z,100379.94
